createdAt,value
2023-03-02T00:02:05.473Z,10.48
2023-03-02T00:07:12.987Z,10.95
2023-03-02T00:09:39.443Z,10.77
2023-03-02T00:12:11.311Z,11.45
2023-03-02T00:14:37.997Z,11.20
2023-03-02T00:17:05.174Z,13.27
2023-03-02T00:19:31.475Z,12.40
2023-03-02T00:21:57.764Z,12.68
2023-03-02T00:24:24.073Z,11.52
2023-03-02T00:26:50.586Z,11.88
2023-03-02T00:29:16.926Z,11.07
2023-03-02T00:31:45.633Z,12.23
2023-03-02T00:34:12.059Z,13.63
2023-03-02T00:36:40.050Z,15.65
2023-03-02T00:39:06.747Z,15.93
2023-03-02T00:41:33.282Z,13.10
2023-03-02T00:43:59.633Z,14.25
2023-03-02T00:46:26.220Z,14.45
2023-03-02T00:48:58.095Z,13.95
2023-03-02T00:51:24.453Z,14.63
2023-03-02T00:53:50.822Z,13.82
2023-03-02T00:56:20.105Z,15.23
2023-03-02T00:58:46.507Z,13.52
2023-03-02T01:01:14.052Z,14.70
2023-03-02T01:03:40.436Z,14.90
2023-03-02T01:06:15.685Z,14.38
2023-03-02T01:08:42.079Z,14.63
2023-03-02T01:11:20.787Z,14.27
2023-03-02T01:13:48.288Z,13.95
2023-03-02T01:16:14.825Z,13.55
2023-03-02T01:18:43.994Z,14.75
2023-03-02T01:21:17.679Z,14.75
2023-03-02T01:23:44.202Z,14.15
2023-03-02T01:26:10.603Z,14.85
2023-03-02T01:28:39.403Z,12.70
2023-03-02T01:31:05.860Z,14.05
2023-03-02T01:33:32.454Z,14.20
2023-03-02T01:35:58.823Z,15.25
2023-03-02T01:38:30.721Z,15.80
2023-03-02T01:40:58.920Z,14.48
2023-03-02T01:43:25.218Z,14.70
2023-03-02T01:46:35.550Z,14.50
2023-03-02T01:49:05.397Z,14.23
2023-03-02T01:51:36.350Z,14.20
2023-03-02T01:56:36.955Z,14.75
2023-03-02T01:59:12.896Z,13.65
2023-03-02T02:01:42.371Z,14.05
2023-03-02T02:04:09.835Z,14.20
2023-03-02T02:06:42.689Z,14.75
2023-03-02T02:09:14.907Z,13.48
2023-03-02T02:11:46.383Z,15.05
2023-03-02T02:14:12.899Z,14.88
2023-03-02T02:16:42.967Z,15.25
2023-03-02T02:19:34.864Z,16.17
2023-03-02T02:22:03.914Z,15.73
2023-03-02T02:24:56.368Z,13.55
2023-03-02T02:27:22.770Z,13.93
2023-03-02T02:29:52.732Z,14.57
2023-03-02T02:32:25.976Z,14.05
2023-03-02T02:35:06.967Z,14.52
2023-03-02T02:37:39.049Z,13.25
2023-03-02T02:40:12.569Z,13.95
2023-03-02T02:42:43.594Z,13.57
2023-03-02T02:47:44.994Z,12.50
2023-03-02T02:50:25.190Z,13.18
2023-03-02T02:52:57.659Z,12.93
2023-03-02T02:55:28.529Z,13.10
2023-03-02T03:03:24.234Z,13.98
2023-03-02T03:05:50.526Z,13.23
2023-03-02T03:08:49.029Z,12.10
2023-03-02T03:11:19.941Z,13.23
2023-03-02T03:16:16.174Z,13.80
2023-03-02T03:18:44.687Z,12.10
2023-03-02T03:21:11.055Z,13.10
2023-03-02T03:23:37.433Z,13.20
2023-03-02T03:26:15.323Z,13.23
2023-03-02T03:28:44.461Z,13.80
2023-03-02T03:31:13.912Z,13.93
2023-03-02T03:33:40.257Z,13.15
2023-03-02T03:36:06.922Z,12.95
2023-03-02T03:38:35.356Z,15.07
2023-03-02T03:41:05.922Z,13.20
2023-03-02T03:43:32.287Z,12.77
2023-03-02T03:45:58.829Z,13.60
2023-03-02T03:48:27.607Z,12.75
2023-03-02T03:50:59.047Z,12.90
2023-03-02T03:53:25.783Z,12.73
2023-03-02T03:55:55.781Z,12.77
2023-03-02T03:58:26.166Z,11.68
2023-03-02T04:00:56.053Z,13.32
2023-03-02T04:03:22.951Z,12.48
2023-03-02T04:05:49.605Z,11.48
2023-03-02T04:08:15.925Z,12.93
2023-03-02T04:10:43.353Z,13.73
2023-03-02T04:13:10.108Z,12.85
2023-03-02T04:15:40.253Z,12.32
2023-03-02T04:18:06.550Z,12.40
2023-03-02T04:20:32.991Z,12.60
2023-03-02T04:22:59.475Z,13.13
2023-03-02T04:25:29.857Z,12.45
2023-03-02T04:27:56.528Z,13.23
2023-03-02T04:30:29.089Z,12.68
2023-03-02T04:32:55.855Z,12.13
2023-03-02T04:35:24.810Z,12.23
2023-03-02T04:37:51.266Z,11.50
2023-03-02T04:40:21.311Z,12.85
2023-03-02T04:42:47.685Z,12.52
2023-03-02T04:45:14.279Z,12.18
2023-03-02T04:47:41.216Z,11.75
2023-03-02T04:50:09.452Z,12.43
2023-03-02T04:52:38.898Z,12.68
2023-03-02T04:55:05.871Z,11.57
2023-03-02T04:57:37.676Z,10.60
2023-03-02T05:00:04.490Z,11.82
2023-03-02T05:02:30.864Z,11.85
2023-03-02T05:04:57.297Z,12.63
2023-03-02T05:07:27.528Z,11.00
2023-03-02T05:09:53.867Z,11.55
2023-03-02T05:12:20.239Z,10.98
2023-03-02T05:14:49.426Z,11.50
2023-03-02T05:17:15.880Z,11.50
2023-03-02T05:19:42.351Z,11.32
2023-03-02T05:22:08.677Z,10.15
2023-03-02T05:24:45.333Z,10.35
2023-03-02T05:27:12.851Z,11.05
2023-03-02T05:29:43.302Z,12.77
2023-03-02T05:32:12.872Z,11.02
2023-03-02T05:34:46.726Z,11.82
2023-03-02T05:37:13.017Z,11.68
2023-03-02T05:39:39.352Z,9.23
2023-03-02T05:42:09.338Z,11.95
2023-03-02T05:44:35.678Z,11.20
2023-03-02T05:47:02.024Z,10.65
2023-03-02T05:49:28.378Z,11.38
2023-03-02T05:51:54.693Z,10.98
2023-03-02T05:54:21.073Z,11.50
2023-03-02T05:56:49.355Z,10.27
2023-03-02T05:59:19.046Z,11.50
2023-03-02T06:01:48.164Z,12.55
2023-03-02T06:04:14.598Z,10.82
2023-03-02T06:06:43.252Z,11.35
2023-03-02T06:09:09.681Z,11.30
2023-03-02T06:11:36.063Z,11.68
2023-03-02T06:14:05.130Z,11.65
2023-03-02T06:16:34.752Z,11.35
2023-03-02T06:19:01.396Z,11.02
2023-03-02T06:21:27.848Z,12.50
2023-03-02T06:23:54.440Z,11.23
2023-03-02T06:26:20.924Z,11.38
2023-03-02T06:28:53.751Z,12.75
2023-03-02T06:31:25.816Z,12.82
2023-03-02T06:33:52.241Z,11.50
2023-03-02T06:36:19.201Z,12.07
2023-03-02T06:38:45.938Z,12.38
2023-03-02T06:41:12.365Z,12.65
2023-03-02T06:43:38.861Z,9.93
2023-03-02T06:46:05.326Z,12.00
2023-03-02T06:48:31.750Z,10.30
2023-03-02T06:51:01.135Z,11.88
2023-03-02T06:53:28.674Z,11.20
2023-03-02T06:55:57.265Z,13.02
2023-03-02T06:58:23.832Z,11.57
2023-03-02T07:00:51.848Z,11.93
2023-03-02T07:03:18.367Z,12.25
2023-03-02T07:05:46.300Z,12.88
2023-03-02T07:08:13.018Z,12.60
2023-03-02T07:10:41.910Z,10.93
2023-03-02T07:13:09.398Z,11.77
2023-03-02T07:15:38.422Z,12.13
2023-03-02T07:18:04.782Z,10.73
2023-03-02T07:20:41.573Z,12.05
2023-03-02T07:23:07.973Z,12.18
2023-03-02T07:25:34.500Z,12.23
2023-03-02T07:28:06.203Z,11.57
2023-03-02T07:30:32.694Z,11.35
2023-03-02T07:32:59.064Z,10.32
2023-03-02T07:35:25.588Z,11.85
2023-03-02T07:37:52.403Z,11.27
2023-03-02T07:40:18.840Z,12.38
2023-03-02T07:42:47.343Z,12.15
2023-03-02T07:45:13.644Z,12.93
2023-03-02T07:47:39.942Z,10.90
2023-03-02T07:50:07.004Z,11.25
2023-03-02T07:52:33.375Z,12.07
2023-03-02T07:55:04.409Z,12.73
2023-03-02T07:57:33.660Z,11.68
2023-03-02T08:00:00.032Z,11.30
2023-03-02T08:02:26.521Z,11.10
2023-03-02T08:04:59.486Z,10.40
2023-03-02T08:07:25.823Z,11.73
2023-03-02T08:09:54.378Z,10.88
2023-03-02T08:12:29.094Z,11.95
2023-03-02T08:14:55.700Z,10.00
2023-03-02T08:17:22.628Z,11.32
2023-03-02T08:19:49.309Z,11.80
2023-03-02T08:22:15.609Z,10.98
2023-03-02T08:24:43.457Z,10.48
2023-03-02T08:27:16.232Z,9.93
2023-03-02T08:29:42.699Z,9.90
2023-03-02T08:32:09.326Z,9.55
2023-03-02T08:34:36.074Z,10.02
2023-03-02T08:37:02.416Z,9.25
2023-03-02T08:39:38.766Z,9.93
2023-03-02T08:42:08.043Z,8.43
2023-03-02T08:44:37.346Z,10.63
2023-03-02T08:47:03.778Z,9.27
2023-03-02T08:49:31.286Z,9.10
2023-03-02T08:51:59.305Z,9.10
2023-03-02T08:54:25.681Z,10.02
2023-03-02T08:56:55.294Z,9.25
2023-03-02T08:59:23.083Z,9.63
2023-03-02T09:01:49.992Z,10.00
2023-03-02T09:04:17.754Z,9.38
2023-03-02T09:06:45.394Z,9.77
2023-03-02T09:09:15.329Z,9.38
2023-03-02T09:11:42.627Z,8.73
2023-03-02T09:14:11.803Z,9.05
2023-03-02T09:16:38.668Z,8.95
2023-03-02T09:19:07.159Z,9.30
2023-03-02T09:21:35.131Z,8.63
2023-03-02T09:24:01.989Z,8.73
2023-03-02T09:26:28.412Z,8.45
2023-03-02T09:28:55.342Z,8.85
2023-03-02T09:31:21.780Z,9.02
2023-03-02T09:33:48.391Z,8.05
2023-03-02T09:36:24.710Z,8.77
2023-03-02T09:38:55.433Z,10.00
2023-03-02T09:41:21.701Z,8.63
2023-03-02T09:44:22.203Z,8.75
2023-03-02T09:47:11.802Z,8.82
2023-03-02T09:49:56.988Z,8.80
2023-03-02T09:52:39.226Z,9.38
2023-03-02T09:55:28.111Z,7.60
2023-03-02T09:57:58.843Z,8.43
2023-03-02T10:00:32.369Z,9.18
2023-03-02T10:03:24.697Z,8.88
2023-03-02T10:05:53.131Z,9.40
2023-03-02T10:08:28.578Z,7.55
2023-03-02T10:11:00.970Z,7.20
2023-03-02T10:14:08.447Z,8.43
2023-03-02T10:16:44.685Z,7.85
2023-03-02T10:19:33.476Z,7.40
2023-03-02T10:22:10.650Z,8.25
2023-03-02T10:25:00.347Z,7.53
2023-03-02T10:27:40.804Z,8.10
2023-03-02T10:30:33.043Z,6.65
2023-03-02T10:33:12.901Z,7.38
2023-03-02T10:35:46.186Z,7.68
2023-03-02T10:38:32.990Z,7.43
2023-03-02T10:41:05.440Z,7.30
2023-03-02T10:43:54.115Z,7.10
2023-03-02T10:46:23.706Z,7.05
2023-03-02T10:48:53.614Z,6.78
2023-03-02T10:51:32.211Z,6.85
2023-03-02T10:54:13.404Z,6.78
2023-03-02T10:56:49.027Z,6.30
2023-03-02T10:59:46.025Z,7.22
2023-03-02T11:02:24.180Z,6.32
2023-03-02T11:05:19.263Z,6.75
2023-03-02T11:08:14.542Z,7.15
2023-03-02T11:10:53.515Z,6.75
2023-03-02T11:13:40.161Z,6.25
2023-03-02T11:16:19.016Z,6.53
2023-03-02T11:18:58.544Z,6.47
2023-03-02T11:21:46.802Z,6.47
2023-03-02T11:24:36.833Z,6.30
2023-03-02T11:27:20.720Z,6.13
2023-03-02T11:29:53.125Z,6.28
2023-03-02T11:32:32.204Z,6.32
2023-03-02T11:35:04.613Z,6.00
2023-03-02T11:37:56.866Z,6.70
2023-03-02T11:40:39.995Z,5.50
2023-03-02T11:43:11.795Z,5.15
2023-03-02T11:45:44.286Z,6.00
2023-03-02T11:48:35.350Z,5.72
2023-03-02T11:51:03.705Z,6.10
2023-03-02T11:53:39.239Z,5.85
2023-03-02T11:56:05.853Z,5.88
2023-03-02T11:58:33.059Z,4.35
2023-03-02T12:01:01.658Z,5.40
2023-03-02T12:03:27.936Z,5.25
2023-03-02T12:06:14.617Z,5.63
2023-03-02T12:08:46.299Z,5.30
2023-03-02T12:11:18.704Z,5.30
2023-03-02T12:14:22.885Z,4.97
2023-03-02T12:16:51.813Z,4.47
2023-03-02T12:19:40.134Z,5.50
2023-03-02T12:22:11.205Z,6.03
2023-03-02T12:24:44.893Z,5.82
2023-03-02T12:27:17.238Z,6.18
2023-03-02T12:29:48.814Z,5.60
2023-03-02T12:32:28.980Z,5.63
2023-03-02T12:35:10.865Z,5.05
2023-03-02T12:37:48.667Z,4.90
2023-03-02T12:40:20.790Z,4.97
2023-03-02T12:43:21.135Z,4.47
2023-03-02T12:46:23.924Z,4.47
2023-03-02T12:49:21.211Z,4.72
2023-03-02T12:51:52.478Z,5.13
2023-03-02T12:54:22.149Z,5.00
2023-03-02T12:56:49.873Z,4.65
2023-03-02T12:59:26.639Z,4.65
2023-03-02T13:02:04.798Z,4.75
2023-03-02T13:04:31.214Z,4.35
2023-03-02T13:06:57.740Z,4.70
2023-03-02T13:09:24.267Z,4.70
2023-03-02T13:11:50.845Z,5.20
2023-03-02T13:14:29.492Z,5.20
2023-03-02T13:17:02.364Z,4.55
2023-03-02T13:19:32.674Z,5.00
2023-03-02T13:22:00.172Z,4.43
2023-03-02T13:24:34.715Z,4.82
2023-03-02T13:27:15.565Z,4.22
2023-03-02T13:29:41.958Z,4.60
2023-03-02T13:32:20.558Z,4.63
2023-03-02T13:34:53.859Z,4.35
2023-03-02T13:37:35.388Z,4.20
2023-03-02T13:40:06.073Z,3.67
2023-03-02T13:42:40.795Z,4.70
2023-03-02T13:45:32.735Z,4.47
2023-03-02T13:48:15.856Z,4.28
2023-03-02T13:50:55.142Z,4.60
2023-03-02T13:53:22.445Z,4.15
2023-03-02T13:55:49.203Z,5.07
2023-03-02T13:58:23.897Z,6.57
2023-03-02T14:00:51.516Z,7.85
2023-03-02T14:03:29.928Z,7.07
2023-03-02T14:05:58.439Z,8.38
2023-03-02T14:08:28.726Z,7.18
2023-03-02T14:10:59.371Z,6.32
2023-03-02T14:13:40.125Z,6.65
2023-03-02T14:16:13.760Z,6.80
2023-03-02T14:18:46.460Z,7.50
2023-03-02T14:21:16.201Z,7.00
2023-03-02T14:23:42.895Z,6.97
2023-03-02T14:26:31.424Z,7.45
2023-03-02T14:29:05.699Z,7.15
2023-03-02T14:31:32.756Z,7.13
2023-03-02T14:34:01.814Z,6.95
2023-03-02T14:36:33.353Z,7.20
2023-03-02T14:39:05.573Z,7.13
2023-03-02T14:41:38.349Z,6.50
2023-03-02T14:44:13.424Z,6.28
2023-03-02T14:46:39.818Z,7.10
2023-03-02T14:49:06.261Z,6.72
2023-03-02T14:51:36.023Z,6.32
2023-03-02T14:54:08.858Z,6.65
2023-03-02T14:56:36.695Z,7.13
2023-03-02T14:59:06.848Z,7.60
2023-03-02T15:04:00.094Z,6.75
2023-03-02T15:06:31.201Z,7.07
2023-03-02T15:09:03.320Z,6.50
2023-03-02T15:11:30.200Z,7.13
2023-03-02T15:13:57.007Z,6.82
2023-03-02T15:16:23.457Z,6.75
2023-03-02T15:18:51.782Z,6.32
2023-03-02T15:21:21.390Z,6.93
2023-03-02T15:23:48.139Z,6.72
2023-03-02T15:26:17.207Z,6.55
2023-03-02T15:28:43.611Z,6.57
2023-03-02T15:31:15.585Z,6.45
2023-03-02T15:33:43.954Z,7.03
2023-03-02T15:36:14.307Z,7.38
2023-03-02T15:38:40.735Z,7.03
2023-03-02T15:41:15.922Z,7.72
2023-03-02T15:43:42.499Z,8.13
2023-03-02T15:46:09.103Z,7.90
2023-03-02T15:48:36.144Z,7.35
2023-03-02T15:51:09.215Z,7.90
2023-03-02T15:53:38.453Z,8.35
2023-03-02T15:56:10.801Z,8.35
2023-03-02T15:58:37.182Z,8.35
2023-03-02T16:01:08.362Z,7.80
2023-03-02T16:03:34.750Z,7.97
2023-03-02T16:06:01.294Z,7.78
2023-03-02T16:08:30.702Z,7.18
2023-03-02T16:11:03.072Z,6.85
2023-03-02T16:13:32.390Z,7.05
2023-03-02T16:16:06.152Z,6.57
2023-03-02T16:18:32.780Z,5.90
2023-03-02T16:20:59.173Z,6.60
2023-03-02T16:23:25.540Z,5.78
2023-03-02T16:25:51.838Z,6.72
2023-03-02T16:28:21.662Z,6.80
2023-03-02T16:30:48.010Z,6.57
2023-03-02T16:33:17.578Z,6.85
2023-03-02T16:35:46.105Z,7.00
2023-03-02T16:38:12.417Z,7.50
2023-03-02T16:40:39.307Z,7.32
2023-03-02T16:43:07.093Z,7.28
2023-03-02T16:45:33.759Z,7.30
2023-03-02T16:48:04.601Z,7.57
2023-03-02T16:50:31.199Z,8.50
2023-03-02T16:53:00.187Z,7.85
2023-03-02T16:55:26.811Z,8.30
2023-03-02T16:57:53.425Z,8.15
2023-03-02T17:00:24.078Z,8.65
2023-03-02T17:02:51.016Z,8.82
2023-03-02T17:05:19.652Z,8.80
2023-03-02T17:07:50.853Z,9.05
2023-03-02T17:10:20.829Z,8.95
2023-03-02T17:12:49.443Z,8.80
2023-03-02T17:15:16.343Z,7.88
2023-03-02T17:17:42.694Z,8.18
2023-03-02T17:20:15.455Z,8.45
2023-03-02T17:22:45.004Z,9.07
2023-03-02T17:25:14.637Z,8.82
2023-03-02T17:27:43.820Z,8.98
2023-03-02T17:30:11.334Z,8.88
2023-03-02T17:32:38.946Z,7.90
2023-03-02T17:35:07.299Z,7.90
2023-03-02T17:37:34.050Z,8.82
2023-03-02T17:40:00.351Z,8.30
2023-03-02T17:42:27.161Z,8.27
2023-03-02T17:44:53.986Z,8.40
2023-03-02T17:47:22.077Z,8.48
2023-03-02T17:49:48.522Z,8.48
2023-03-02T17:52:18.161Z,6.95
2023-03-02T17:54:44.837Z,7.32
2023-03-02T17:57:15.490Z,8.32
2023-03-02T18:02:10.052Z,7.28
2023-03-02T18:04:36.804Z,7.60
2023-03-02T18:07:04.694Z,8.48
2023-03-02T18:09:31.327Z,8.05
2023-03-02T18:11:58.976Z,7.50
2023-03-02T18:14:27.744Z,8.18
2023-03-02T18:16:55.602Z,7.68
2023-03-02T18:19:22.126Z,6.93
2023-03-02T18:21:49.021Z,7.40
2023-03-02T18:24:15.613Z,8.00
2023-03-02T18:26:42.124Z,7.03
2023-03-02T18:29:09.476Z,7.43
2023-03-02T18:31:35.891Z,8.00
2023-03-02T18:34:04.457Z,7.35
2023-03-02T18:36:34.347Z,7.90
2023-03-02T18:39:00.716Z,7.60
2023-03-02T18:41:30.014Z,7.57
2023-03-02T18:43:56.858Z,7.53
2023-03-02T18:46:28.998Z,7.03
2023-03-02T18:48:56.321Z,7.53
2023-03-02T18:51:24.214Z,7.00
2023-03-02T18:53:52.085Z,7.03
2023-03-02T18:56:19.676Z,5.97
2023-03-02T18:58:46.723Z,7.03
2023-03-02T19:01:13.265Z,6.22
2023-03-02T19:03:39.745Z,5.95
2023-03-02T19:06:14.623Z,6.45
2023-03-02T19:08:41.054Z,6.70
2023-03-02T19:11:10.307Z,6.60
2023-03-02T19:13:36.608Z,6.32
2023-03-02T19:16:03.076Z,5.40
2023-03-02T19:18:30.253Z,5.82
2023-03-02T19:20:56.843Z,5.28
2023-03-02T19:23:26.404Z,6.03
2023-03-02T19:25:53.083Z,5.57
2023-03-02T19:28:19.721Z,6.20
2023-03-02T19:30:46.130Z,5.78
2023-03-02T19:33:15.824Z,6.20
2023-03-02T19:35:42.808Z,6.25
2023-03-02T19:38:09.644Z,6.40
2023-03-02T19:40:37.237Z,5.93
2023-03-02T19:43:05.477Z,6.28
2023-03-02T19:45:34.889Z,5.90
2023-03-02T19:48:05.600Z,5.95
2023-03-02T19:50:33.565Z,6.57
2023-03-02T19:52:59.975Z,6.53
2023-03-02T19:55:26.523Z,6.68
2023-03-02T19:57:55.146Z,7.03
2023-03-02T20:00:26.870Z,6.30
2023-03-02T20:02:56.584Z,6.10
2023-03-02T20:05:26.354Z,7.15
2023-03-02T20:07:53.794Z,6.35
2023-03-02T20:10:43.855Z,6.40
2023-03-02T20:13:10.650Z,6.43
2023-03-02T20:15:41.780Z,6.43
2023-03-02T20:18:10.547Z,6.60
2023-03-02T20:20:36.966Z,6.97
2023-03-02T20:23:05.867Z,6.82
2023-03-02T20:25:35.122Z,7.40
2023-03-02T20:28:02.095Z,6.68
2023-03-02T20:30:34.852Z,7.13
2023-03-02T20:33:06.321Z,7.60
2023-03-02T20:35:35.260Z,6.90
2023-03-02T20:38:03.872Z,6.70
2023-03-02T20:40:30.279Z,7.90
2023-03-02T20:42:59.664Z,6.90
2023-03-02T20:45:26.037Z,8.07
2023-03-02T20:47:52.518Z,7.75
2023-03-02T20:50:21.614Z,8.05
2023-03-02T20:52:50.355Z,7.90
2023-03-02T20:55:17.245Z,8.60
2023-03-02T20:57:43.619Z,8.50
2023-03-02T21:00:16.490Z,7.90
2023-03-02T21:02:42.887Z,7.68
2023-03-02T21:05:10.201Z,9.52
2023-03-02T21:07:39.192Z,10.50
2023-03-02T21:10:08.456Z,9.52
2023-03-02T21:12:38.658Z,8.80
2023-03-02T21:15:05.901Z,10.18
2023-03-02T21:17:32.207Z,9.18
2023-03-02T21:19:58.589Z,9.48
2023-03-02T21:22:25.239Z,10.00
2023-03-02T21:24:51.908Z,10.82
2023-03-02T21:27:19.248Z,10.10
2023-03-02T21:29:45.582Z,10.23
2023-03-02T21:32:15.033Z,8.65
2023-03-02T21:34:41.829Z,10.80
2023-03-02T21:37:10.732Z,9.63
2023-03-02T21:39:37.158Z,10.48
2023-03-02T21:42:03.671Z,10.00
2023-03-02T21:44:29.984Z,11.43
2023-03-02T21:46:56.384Z,11.07
2023-03-02T21:49:22.886Z,11.90
2023-03-02T21:51:52.207Z,10.30
2023-03-02T21:54:18.594Z,11.00
2023-03-02T21:56:45.191Z,10.43
2023-03-02T21:59:15.395Z,10.68
2023-03-02T22:01:44.437Z,11.43
2023-03-02T22:04:10.768Z,11.60
2023-03-02T22:06:37.126Z,10.48
2023-03-02T22:09:11.405Z,10.93
2023-03-02T22:11:38.356Z,10.35
2023-03-02T22:14:13.511Z,11.35
2023-03-02T22:16:42.727Z,12.23
2023-03-02T22:19:29.936Z,11.63
2023-03-02T22:21:59.848Z,11.48
2023-03-02T22:24:29.010Z,11.77
2023-03-02T22:27:08.915Z,11.52
2023-03-02T22:29:49.250Z,12.85
2023-03-02T22:32:27.475Z,12.05
2023-03-02T22:34:59.300Z,13.30
2023-03-02T22:37:34.314Z,11.70
2023-03-02T22:40:02.368Z,13.00
2023-03-02T22:42:30.558Z,11.75
2023-03-02T22:45:21.770Z,10.82
2023-03-02T22:47:53.211Z,12.18
2023-03-02T22:50:26.945Z,11.48
2023-03-02T22:52:54.793Z,11.63
2023-03-02T22:55:41.927Z,11.45
2023-03-02T22:58:30.421Z,10.98
2023-03-02T23:01:13.458Z,11.32
2023-03-02T23:03:45.579Z,10.48
2023-03-02T23:06:40.640Z,10.75
2023-03-02T23:09:10.034Z,10.57
2023-03-02T23:11:41.230Z,11.23
2023-03-02T23:14:27.727Z,10.68
2023-03-02T23:16:59.661Z,10.30
2023-03-02T23:19:31.606Z,10.18
2023-03-02T23:22:04.322Z,11.32
2023-03-02T23:24:30.714Z,10.40
2023-03-02T23:26:58.253Z,9.52
2023-03-02T23:29:24.592Z,9.93
2023-03-02T23:31:51.016Z,10.45
2023-03-02T23:34:17.477Z,9.93
2023-03-02T23:36:43.801Z,9.00
2023-03-02T23:39:12.203Z,10.55
2023-03-02T23:41:39.437Z,9.70
2023-03-02T23:44:08.212Z,8.73
2023-03-02T23:46:35.045Z,8.60
2023-03-02T23:49:01.394Z,9.35
2023-03-02T23:51:30.208Z,8.68
2023-03-02T23:53:56.574Z,9.60
2023-03-02T23:56:23.340Z,9.50
2023-03-02T23:58:52.877Z,8.43
